Time;durP1;ratioP1;P1;durP2;ratioP2;P2;SDS_P1;SDS_P2;PMS_P1;PMS_P2;Temp;Humidity;BMP_temperature;BMP_pressure;BME280_temperature;BME280_humidity;BME280_pressure;Samples;Min_cycle;Max_cycle;Signal;HPM_P1;HPM_P2
2022/08/04 14:55:16;;;;;;;;;;;33.00;40.60;;;;;;5082229;23;19998;-58
2022/08/04 14:57:42;;;;;;;;;;;33.20;40.30;;;;;;4900451;29;19923;-59
2022/08/04 15:00:08;;;;;;;;;;;33.10;40.70;;;;;;4900604;29;20360;-59
2022/08/04 15:02:34;;;;;;;;;;;32.80;41.70;;;;;;4900594;29;20426;-59
2022/08/04 15:05:01;;;;;;;;;;;32.80;40.90;;;;;;4900229;29;20268;-58
2022/08/04 15:07:26;;;;;;;;;;;33.00;42.00;;;;;;4899973;29;19924;-57
2022/08/04 15:09:52;;;;;;;;;;;32.90;42.70;;;;;;4900674;29;19955;-58
2022/08/04 15:12:18;;;;;;;;;;;32.80;42.80;;;;;;4900802;29;19998;-58
2022/08/04 15:14:44;;;;;;;;;;;32.90;42.90;;;;;;4900870;29;19964;-58
2022/08/04 15:17:10;;;;;;;;;;;33.00;42.20;;;;;;4900944;29;19928;-58
2022/08/04 15:19:36;;;;;;;;;;;33.10;42.00;;;;;;4900182;29;19922;-59
2022/08/04 15:22:02;;;;;;;;;;;33.30;41.30;;;;;;4899869;29;19911;-56
2022/08/04 15:24:27;;;;;;;;;;;33.00;42.10;;;;;;4900238;29;19912;-59
2022/08/04 15:26:54;;;;;;;;;;;33.00;40.90;;;;;;4898872;29;19952;-58
2022/08/04 15:29:37;;;;;;;;;;;32.70;41.30;;;;;;4899833;29;19912;-57
2022/08/04 15:32:03;;;;;;;;;;;32.70;41.20;;;;;;4899839;29;19919;-56
2022/08/04 15:34:42;;;;;;;;;;;32.70;42.00;;;;;;4900121;29;19927;-58
2022/08/04 15:37:08;;;;;;;;;;;32.80;41.60;;;;;;4900149;29;20147;-57
2022/08/04 15:39:42;;;;;;;;;;;32.90;41.40;;;;;;4899978;29;19999;-57
2022/08/04 15:42:13;;;;;;;;;;;32.60;42.70;;;;;;4899112;29;21453;-57
2022/08/04 15:44:39;;;;;;;;;;;32.70;42.00;;;;;;4900243;29;19955;-57
2022/08/04 15:47:14;;;;;;;;;;;32.80;43.00;;;;;;4900065;29;20320;-59
2022/08/04 15:49:40;;;;;;;;;;;32.90;43.70;;;;;;4900070;29;19915;-57
2022/08/04 15:52:08;;;;;;;;;;;32.90;41.70;;;;;;4896668;29;19998;-57
2022/08/04 15:54:35;;;;;;;;;;;33.00;41.70;;;;;;4899563;29;19918;-57
2022/08/04 15:57:01;;;;;;;;;;;33.00;40.90;;;;;;4899268;29;19938;-56
2022/08/04 15:59:47;;;;;;;;;;;33.00;41.40;;;;;;4898327;29;19919;-56
2022/08/04 16:02:28;;;;;;;;;;;33.00;39.90;;;;;;4896256;29;19918;-58
2022/08/04 16:05:12;;;;;;;;;;;33.00;40.30;;;;;;4897104;29;20327;-63
2022/08/04 16:07:57;;;;;;;;;;;32.90;41.10;;;;;;4897279;29;19942;-57
2022/08/04 16:10:28;;;;;;;;;;;32.90;39.70;;;;;;4898179;29;19999;-57
2022/08/04 16:12:55;;;;;;;;;;;32.90;38.70;;;;;;4896719;29;19967;-66
2022/08/04 16:15:35;;;;;;;;;;;32.90;38.00;;;;;;4899065;29;19968;-58
2022/08/04 16:18:01;;;;;;;;;;;32.80;39.80;;;;;;4899391;29;19916;-57
2022/08/04 16:20:27;;;;;;;;;;;32.40;41.10;;;;;;4899678;29;19911;-60
2022/08/04 16:22:55;;;;;;;;;;;32.10;41.40;;;;;;4899053;29;19947;-58
2022/08/04 16:25:41;;;;;;;;;;;32.20;40.70;;;;;;4871393;29;19916;-59
2022/08/04 16:28:06;;;;;;;;;;;32.20;40.60;;;;;;4885246;29;20283;-58
2022/08/04 16:30:38;;;;;;;;;;;32.00;39.80;;;;;;4897861;29;19912;-61
2022/08/04 16:33:07;;;;;;;;;;;32.10;39.80;;;;;;4897743;29;20427;-59
2022/08/04 16:35:33;;;;;;;;;;;32.00;38.60;;;;;;4898047;29;19911;-60
2022/08/04 16:38:28;;;;;;;;;;;32.20;39.10;;;;;;4896569;29;19915;-58
2022/08/04 16:40:55;;;;;;;;;;;32.20;39.50;;;;;;4893083;29;19920;-59
2022/08/04 16:43:21;;;;;;;;;;;32.20;39.10;;;;;;4897569;29;20015;-60
2022/08/04 16:45:57;;;;;;;;;;;32.10;39.40;;;;;;4897015;29;19912;-59
2022/08/04 16:48:23;;;;;;;;;;;32.20;39.90;;;;;;4896491;29;20264;-60
2022/08/04 16:50:51;;;;;;;;;;;32.20;39.70;;;;;;4896562;29;19940;-59
2022/08/04 16:53:18;;;;;;;;;;;32.20;39.60;;;;;;4896449;29;19911;-61
2022/08/04 16:55:47;;;;;;;;;;;32.20;39.30;;;;;;4883930;29;20390;-59
2022/08/04 16:58:14;;;;;;;;;;;32.10;38.70;;;;;;4897443;29;20264;-59
2022/08/04 17:00:40;;;;;;;;;;;32.30;38.30;;;;;;4897511;29;20311;-59
2022/08/04 17:03:06;;;;;;;;;;;32.40;39.00;;;;;;4897336;29;19916;-59
2022/08/04 17:05:42;;;;;;;;;;;;;;;;;;;;;
2022/08/04 17:08:08;;;;;;;;;;;32.10;38.20;;;;;;4896099;29;19923;-61
2022/08/04 17:10:41;;;;;;;;;;;32.10;38.40;;;;;;4894797;29;20651;-57
2022/08/04 17:13:23;;;;;;;;;;;32.10;38.00;;;;;;4896145;29;19911;-57
2022/08/04 17:15:50;;;;;;;;;;;32.20;38.30;;;;;;4894527;29;19963;-58
2022/08/04 17:18:20;;;;;;;;;;;32.20;38.20;;;;;;4896250;29;19915;-58
2022/08/04 17:20:46;;;;;;;;;;;32.20;38.20;;;;;;4893507;29;19970;-58
2022/08/04 17:23:42;;;;;;;;;;;32.30;37.90;;;;;;4886019;29;19911;-56
2022/08/04 17:26:07;;;;;;;;;;;32.20;38.60;;;;;;4875187;29;20253;-58
2022/08/04 17:28:33;;;;;;;;;;;32.20;38.60;;;;;;4887670;29;19926;-60
2022/08/04 17:31:00;;;;;;;;;;;32.20;38.00;;;;;;4882772;29;20007;-58
2022/08/04 17:33:26;;;;;;;;;;;32.20;38.40;;;;;;4891674;29;19935;-58
2022/08/04 17:35:52;;;;;;;;;;;32.20;39.40;;;;;;4896081;29;20364;-61
2022/08/04 17:38:18;;;;;;;;;;;32.20;38.60;;;;;;4896104;29;20020;-61
2022/08/04 17:40:55;;;;;;;;;;;32.20;38.50;;;;;;4891227;29;20391;-60
2022/08/04 17:43:32;;;;;;;;;;;32.20;39.20;;;;;;4887996;29;19919;-59
2022/08/04 17:46:17;;;;;;;;;;;32.10;39.50;;;;;;4895794;29;19912;-58
2022/08/04 17:48:42;;;;;;;;;;;32.00;38.60;;;;;;4877439;29;19998;-59
2022/08/04 17:51:14;;;;;;;;;;;32.00;39.90;;;;;;4877461;29;20010;-61
2022/08/04 17:53:41;;;;;;;;;;;31.80;40.90;;;;;;4877455;29;20373;-58
2022/08/04 17:56:26;;;;;;;;;;;31.80;40.50;;;;;;4868304;29;20058;-59
2022/08/04 17:59:07;;;;;;;;;;;31.80;40.00;;;;;;4884722;29;19927;-62
2022/08/04 18:01:40;;;;;;;;;;;31.90;41.20;;;;;;4887143;29;19927;-61
2022/08/04 18:04:24;;;;;;;;;;;31.60;41.40;;;;;;4882851;29;19912;-62
2022/08/04 18:06:50;;;;;;;;;;;31.50;41.70;;;;;;4882461;29;19927;-61
2022/08/04 18:09:26;;;;;;;;;;;31.50;41.10;;;;;;4878596;29;20013;-61
2022/08/04 18:12:03;;;;;;;;;;;31.50;40.80;;;;;;4878753;29;20368;-59
2022/08/04 18:14:55;;;;;;;;;;;31.40;40.90;;;;;;4883766;29;19920;-62
2022/08/04 18:17:45;;;;;;;;;;;31.30;41.20;;;;;;4881684;29;19912;-60
2022/08/04 18:20:13;;;;;;;;;;;31.30;41.70;;;;;;4880815;29;19911;-59
2022/08/04 18:22:40;;;;;;;;;;;31.20;41.50;;;;;;4879009;29;19927;-60
2022/08/04 18:25:10;;;;;;;;;;;31.10;42.50;;;;;;4883609;29;19919;-60
2022/08/04 18:27:45;;;;;;;;;;;31.00;42.60;;;;;;4870021;29;19923;-59
2022/08/04 18:30:11;;;;;;;;;;;30.90;42.50;;;;;;4885456;29;20269;-61
2022/08/04 18:32:36;;;;;;;;;;;30.70;44.00;;;;;;4886671;29;19919;-61
2022/08/04 18:35:02;;;;;;;;;;;30.70;44.50;;;;;;4884494;29;19916;-60
2022/08/04 18:37:29;;;;;;;;;;;30.70;44.30;;;;;;4882495;29;19912;-61
2022/08/04 18:39:55;;;;;;;;;;;30.70;43.90;;;;;;4880794;29;19997;-61
2022/08/04 18:42:20;;;;;;;;;;;30.70;44.00;;;;;;4893729;29;20133;-62
2022/08/04 18:44:46;;;;;;;;;;;30.60;44.50;;;;;;4890853;29;19924;-63
2022/08/04 18:47:11;;;;;;;;;;;30.30;44.60;;;;;;4882082;29;19924;-60
2022/08/04 18:49:37;;;;;;;;;;;30.20;45.50;;;;;;4882641;29;19912;-60
2022/08/04 18:52:03;;;;;;;;;;;30.10;44.50;;;;;;4882059;29;20007;-62
2022/08/04 18:54:30;;;;;;;;;;;29.90;45.50;;;;;;4880766;29;19912;-60
2022/08/04 18:56:56;;;;;;;;;;;29.80;45.10;;;;;;4868121;29;19928;-64
2022/08/04 18:59:21;;;;;;;;;;;29.80;44.70;;;;;;4882288;29;19922;-61
2022/08/04 19:01:47;;;;;;;;;;;29.80;45.20;;;;;;4882416;29;19911;-59
2022/08/04 19:04:14;;;;;;;;;;;29.70;44.70;;;;;;4881932;29;19912;-59
2022/08/04 19:06:40;;;;;;;;;;;29.80;44.50;;;;;;4893398;29;19987;-61
2022/08/04 19:09:06;;;;;;;;;;;29.80;44.20;;;;;;4897894;29;19919;-63
2022/08/04 19:11:32;;;;;;;;;;;29.70;43.90;;;;;;4897919;29;19922;-61
2022/08/04 19:14:01;;;;;;;;;;;29.50;44.00;;;;;;4892518;29;19920;-59
2022/08/04 19:16:28;;;;;;;;;;;29.60;43.80;;;;;;4880014;29;19916;-58
2022/08/04 19:18:54;;;;;;;;;;;29.60;43.30;;;;;;4882407;29;20398;-58
2022/08/04 19:21:19;;;;;;;;;;;29.60;42.80;;;;;;4881521;29;19916;-59
2022/08/04 19:23:45;;;;;;;;;;;29.60;42.60;;;;;;4897758;29;19911;-59
2022/08/04 19:26:11;;;;;;;;;;;29.60;42.80;;;;;;4883177;29;19971;-62
2022/08/04 19:28:36;;;;;;;;;;;29.40;43.20;;;;;;4898706;29;19947;-62
2022/08/04 19:31:03;;;;;;;;;;;29.30;41.30;;;;;;4898842;29;20371;-63
2022/08/04 19:33:28;;;;;;;;;;;29.20;42.20;;;;;;4898468;29;19912;-62
2022/08/04 19:35:54;;;;;;;;;;;29.20;42.10;;;;;;4898770;29;19922;-63
2022/08/04 19:38:19;;;;;;;;;;;29.20;42.60;;;;;;4898670;29;20447;-62
2022/08/04 19:40:45;;;;;;;;;;;29.20;42.70;;;;;;4898732;29;19947;-63
2022/08/04 19:43:12;;;;;;;;;;;29.20;42.60;;;;;;4898805;29;19979;-64
2022/08/04 19:45:37;;;;;;;;;;;29.10;42.30;;;;;;4898607;29;19963;-63
2022/08/04 19:48:04;;;;;;;;;;;29.10;42.30;;;;;;4898632;29;20431;-62
2022/08/04 19:50:30;;;;;;;;;;;29.10;42.60;;;;;;4898783;29;19916;-63
2022/08/04 19:52:55;;;;;;;;;;;29.00;43.00;;;;;;4898273;29;20360;-63
2022/08/04 19:55:22;;;;;;;;;;;28.90;43.50;;;;;;4889153;29;19912;-62
2022/08/04 19:57:47;;;;;;;;;;;28.90;43.60;;;;;;4898434;29;19930;-63
2022/08/04 20:00:13;;;;;;;;;;;28.80;43.70;;;;;;4898497;29;20009;-63
2022/08/04 20:02:39;;;;;;;;;;;28.80;43.70;;;;;;4898207;29;20116;-62
2022/08/04 20:05:05;;;;;;;;;;;28.80;43.80;;;;;;4898387;29;19978;-62
2022/08/04 20:07:31;;;;;;;;;;;28.70;44.10;;;;;;4898098;29;20375;-62
2022/08/04 20:09:57;;;;;;;;;;;28.60;44.60;;;;;;4898350;29;19963;-62
2022/08/04 20:12:22;;;;;;;;;;;28.60;44.50;;;;;;4898148;29;19915;-62
2022/08/04 20:14:48;;;;;;;;;;;28.60;44.80;;;;;;4898283;29;19916;-63
2022/08/04 20:17:14;;;;;;;;;;;28.60;44.90;;;;;;4898217;29;19919;-62
2022/08/04 20:19:40;;;;;;;;;;;28.60;44.90;;;;;;4897901;29;19920;-63
2022/08/04 20:22:05;;;;;;;;;;;28.60;45.20;;;;;;4898024;29;19991;-62
2022/08/04 20:24:31;;;;;;;;;;;28.60;45.20;;;;;;4898225;29;19919;-62
2022/08/04 20:26:57;;;;;;;;;;;28.60;45.10;;;;;;4883598;29;19919;-63
2022/08/04 20:29:22;;;;;;;;;;;28.60;45.00;;;;;;4897809;29;19911;-63
2022/08/04 20:31:48;;;;;;;;;;;28.60;45.00;;;;;;4897552;29;19918;-63
2022/08/04 20:34:13;;;;;;;;;;;28.60;45.00;;;;;;4897919;29;19959;-63
2022/08/04 20:36:40;;;;;;;;;;;28.60;45.30;;;;;;4897756;29;20311;-64
2022/08/04 20:39:06;;;;;;;;;;;28.50;45.30;;;;;;4897655;29;19918;-62
2022/08/04 20:41:32;;;;;;;;;;;28.40;45.50;;;;;;4897880;29;19967;-62
2022/08/04 20:43:57;;;;;;;;;;;28.30;45.30;;;;;;4897525;29;20375;-63
2022/08/04 20:46:23;;;;;;;;;;;28.40;45.20;;;;;;4896945;29;19995;-62
2022/08/04 20:48:48;;;;;;;;;;;28.30;45.80;;;;;;4897517;29;19940;-62
2022/08/04 20:51:18;;;;;;;;;;;28.20;46.00;;;;;;4897456;29;20390;-62
2022/08/04 20:53:44;;;;;;;;;;;28.20;46.20;;;;;;4897536;29;20363;-63
2022/08/04 20:56:10;;;;;;;;;;;28.10;46.50;;;;;;4891434;29;19930;-63
2022/08/04 20:58:35;;;;;;;;;;;28.00;46.60;;;;;;4897487;29;19915;-63
2022/08/04 21:01:01;;;;;;;;;;;27.90;46.50;;;;;;4897244;29;19960;-62
2022/08/04 21:03:27;;;;;;;;;;;27.90;46.60;;;;;;4897259;29;19912;-62
2022/08/04 21:05:52;;;;;;;;;;;27.90;47.60;;;;;;4897234;29;19916;-62
2022/08/04 21:08:18;;;;;;;;;;;28.00;47.30;;;;;;4897472;29;19920;-63
2022/08/04 21:10:43;;;;;;;;;;;27.90;47.20;;;;;;4897216;29;20353;-62
2022/08/04 21:13:09;;;;;;;;;;;27.90;48.00;;;;;;4897130;29;20372;-63
2022/08/04 21:15:34;;;;;;;;;;;27.90;47.70;;;;;;4897139;29;19912;-63
2022/08/04 21:18:00;;;;;;;;;;;27.80;47.50;;;;;;4897220;29;20304;-62
2022/08/04 21:20:25;;;;;;;;;;;27.70;47.10;;;;;;4897179;29;20324;-63
2022/08/04 21:22:51;;;;;;;;;;;27.60;47.60;;;;;;4897117;29;19918;-62
2022/08/04 21:25:17;;;;;;;;;;;27.70;47.90;;;;;;4882298;29;19915;-62
2022/08/04 21:27:43;;;;;;;;;;;27.70;47.50;;;;;;4897086;29;20070;-62
2022/08/04 21:30:08;;;;;;;;;;;27.70;47.70;;;;;;4897052;29;19912;-64
2022/08/04 21:32:34;;;;;;;;;;;27.70;47.40;;;;;;4896848;29;19918;-62
2022/08/04 21:35:00;;;;;;;;;;;27.70;47.30;;;;;;4896907;29;19915;-62
2022/08/04 21:37:25;;;;;;;;;;;27.70;46.40;;;;;;4897138;29;19916;-62
2022/08/04 21:39:51;;;;;;;;;;;27.70;46.00;;;;;;4897041;29;20287;-62
2022/08/04 21:42:17;;;;;;;;;;;27.70;46.10;;;;;;4896759;29;19915;-62
2022/08/04 21:44:42;;;;;;;;;;;27.60;46.00;;;;;;4897046;29;19972;-62
2022/08/04 21:47:08;;;;;;;;;;;27.70;45.50;;;;;;4896762;29;20383;-62
2022/08/04 21:49:34;;;;;;;;;;;27.70;45.60;;;;;;4896919;29;20465;-62
2022/08/04 21:51:59;;;;;;;;;;;27.70;44.50;;;;;;4896850;29;19922;-62
2022/08/04 21:54:25;;;;;;;;;;;27.80;44.70;;;;;;4896793;29;19998;-62
2022/08/04 21:56:51;;;;;;;;;;;27.70;44.30;;;;;;4880251;29;19983;-62
2022/08/04 21:59:16;;;;;;;;;;;27.70;43.30;;;;;;4900512;29;20327;-63
2022/08/04 22:01:42;;;;;;;;;;;27.60;44.70;;;;;;4900675;29;19911;-62
2022/08/04 22:04:07;;;;;;;;;;;27.60;44.50;;;;;;4900378;29;19915;-62
2022/08/04 22:06:33;;;;;;;;;;;27.70;43.40;;;;;;4900535;29;19962;-62
2022/08/04 22:08:58;;;;;;;;;;;27.70;42.70;;;;;;4900498;29;19918;-61
2022/08/04 22:11:27;;;;;;;;;;;27.70;43.00;;;;;;4900226;29;20335;-62
2022/08/04 22:13:53;;;;;;;;;;;27.60;44.60;;;;;;4900581;29;20295;-62
2022/08/04 22:16:19;;;;;;;;;;;27.60;43.70;;;;;;4900303;29;19951;-62
2022/08/04 22:18:45;;;;;;;;;;;27.70;43.20;;;;;;4900161;29;20347;-62
2022/08/04 22:21:10;;;;;;;;;;;27.70;43.00;;;;;;4900173;29;20406;-62
2022/08/04 22:23:36;;;;;;;;;;;27.60;42.80;;;;;;4900119;29;19916;-62
2022/08/04 22:26:01;;;;;;;;;;;27.70;43.20;;;;;;4886417;29;19916;-62
2022/08/04 22:28:27;;;;;;;;;;;27.70;42.70;;;;;;4900088;29;20010;-62
2022/08/04 22:30:52;;;;;;;;;;;27.80;42.50;;;;;;4900145;29;20010;-62
2022/08/04 22:33:18;;;;;;;;;;;27.90;42.90;;;;;;4899845;29;19912;-62
2022/08/04 22:35:44;;;;;;;;;;;27.80;42.80;;;;;;4899902;29;20356;-63
2022/08/04 22:38:12;;;;;;;;;;;27.80;43.10;;;;;;4900106;29;19922;-63
2022/08/04 22:40:37;;;;;;;;;;;27.70;43.40;;;;;;4900104;29;19911;-62
2022/08/04 22:43:03;;;;;;;;;;;27.80;42.60;;;;;;4899773;29;19916;-62
2022/08/04 22:45:29;;;;;;;;;;;27.70;43.80;;;;;;4899784;29;20010;-62
2022/08/04 22:47:54;;;;;;;;;;;27.70;43.80;;;;;;4899665;29;19927;-63
2022/08/04 22:50:20;;;;;;;;;;;27.60;44.10;;;;;;4899722;29;19971;-63
2022/08/04 22:52:46;;;;;;;;;;;27.60;43.80;;;;;;4899731;29;19967;-62
2022/08/04 22:55:11;;;;;;;;;;;27.60;44.20;;;;;;4899635;29;20304;-62
2022/08/04 22:57:37;;;;;;;;;;;27.60;44.70;;;;;;4891146;29;19930;-62
2022/08/04 23:00:03;;;;;;;;;;;27.70;44.50;;;;;;4899535;29;19919;-63
2022/08/04 23:02:29;;;;;;;;;;;27.50;44.90;;;;;;4899263;29;19918;-62
2022/08/04 23:04:54;;;;;;;;;;;27.50;45.30;;;;;;4899575;29;19915;-62
2022/08/04 23:07:20;;;;;;;;;;;27.40;45.30;;;;;;4899304;29;19930;-62
2022/08/04 23:09:46;;;;;;;;;;;27.40;45.20;;;;;;4898912;29;19962;-62
2022/08/04 23:12:11;;;;;;;;;;;27.40;44.80;;;;;;4899199;29;19912;-62
2022/08/04 23:14:37;;;;;;;;;;;27.40;45.70;;;;;;4899258;29;19916;-62
2022/08/04 23:17:02;;;;;;;;;;;27.20;45.50;;;;;;4899300;29;20010;-62
2022/08/04 23:19:28;;;;;;;;;;;27.30;44.70;;;;;;4899256;29;19918;-62
2022/08/04 23:21:53;;;;;;;;;;;27.40;45.40;;;;;;4899077;29;19923;-62
2022/08/04 23:24:19;;;;;;;;;;;27.30;45.70;;;;;;4899434;29;19986;-62
2022/08/04 23:26:47;;;;;;;;;;;27.30;45.30;;;;;;4880087;29;19944;-62
2022/08/04 23:29:13;;;;;;;;;;;27.30;45.20;;;;;;4899061;29;19915;-63
2022/08/04 23:31:38;;;;;;;;;;;27.40;45.20;;;;;;4898745;29;20279;-61
2022/08/04 23:34:04;;;;;;;;;;;27.40;45.80;;;;;;4898835;29;19995;-63
2022/08/04 23:36:31;;;;;;;;;;;27.40;45.90;;;;;;4898929;29;19919;-62
2022/08/04 23:39:00;;;;;;;;;;;27.30;45.70;;;;;;4898740;29;20002;-62
2022/08/04 23:41:26;;;;;;;;;;;27.20;46.40;;;;;;4898772;29;19978;-63
2022/08/04 23:43:51;;;;;;;;;;;27.20;46.10;;;;;;4898773;29;19931;-62
2022/08/04 23:46:17;;;;;;;;;;;27.20;45.80;;;;;;4898516;29;19927;-62
2022/08/04 23:48:44;;;;;;;;;;;27.10;46.70;;;;;;4898656;29;20376;-62
2022/08/04 23:51:10;;;;;;;;;;;27.20;46.80;;;;;;4898666;29;19959;-63
2022/08/04 23:53:36;;;;;;;;;;;27.10;45.70;;;;;;4898634;29;19919;-63
2022/08/04 23:56:12;;;;;;;;;;;27.20;45.60;;;;;;4879445;29;19931;-62
2022/08/04 23:58:38;;;;;;;;;;;27.20;45.30;;;;;;4898449;29;19939;-63
